Time;durP1;ratioP1;P1;durP2;ratioP2;P2;SDS_P1;SDS_P2;PMS_P1;PMS_P2;Temp;Humidity;BMP_temperature;BMP_pressure;BME280_temperature;BME280_humidity;BME280_pressure;Samples;Min_cycle;Max_cycle;Signal;HPM_P1;HPM_P2
2023/04/10 00:00:38;;;;;;;14.63;9.13;;;11.10;46.90;;;;;;5021562;28;20064;-43
2023/04/10 00:03:05;;;;;;;12.63;9.35;;;11.10;47.00;;;;;;5020800;28;20060;-47
2023/04/10 00:05:32;;;;;;;16.23;9.82;;;11.10;47.00;;;;;;5021605;28;20061;-48
2023/04/10 00:08:00;;;;;;;14.00;8.82;;;11.10;47.10;;;;;;5020794;28;20053;-45
2023/04/10 00:10:30;;;;;;;15.65;9.77;;;11.00;47.60;;;;;;5022118;28;20080;-45
2023/04/10 00:12:59;;;;;;;13.63;8.93;;;11.00;47.10;;;;;;5019463;28;20057;-44
2023/04/10 00:15:27;;;;;;;16.20;9.63;;;11.00;47.20;;;;;;5021673;28;20049;-47
2023/04/10 00:17:56;;;;;;;14.77;9.20;;;11.00;47.30;;;;;;5022337;28;20049;-47
2023/04/10 00:20:25;;;;;;;16.33;10.18;;;11.00;47.30;;;;;;5018611;28;20057;-43
2023/04/10 00:22:52;;;;;;;18.48;10.77;;;10.90;47.30;;;;;;5020538;28;20053;-44
2023/04/10 00:25:21;;;;;;;12.75;8.70;;;10.90;47.40;;;;;;5022121;28;20130;-42
2023/04/10 00:27:49;;;;;;;13.57;9.10;;;10.90;47.50;;;;;;5021760;28;20873;-46
2023/04/10 00:30:16;;;;;;;12.15;8.50;;;10.90;47.50;;;;;;5018898;28;20059;-46
2023/04/10 00:32:43;;;;;;;12.48;8.65;;;10.90;47.60;;;;;;5020772;28;20525;-48
2023/04/10 00:35:12;;;;;;;13.23;8.85;;;10.90;47.60;;;;;;5019699;28;20402;-46
2023/04/10 00:37:39;;;;;;;12.45;8.43;;;10.80;47.60;;;;;;5020446;28;20064;-48
2023/04/10 00:40:08;;;;;;;15.50;8.93;;;10.80;47.70;;;;;;5020221;28;20056;-45
2023/04/10 00:42:36;;;;;;;14.60;8.50;;;10.80;47.70;;;;;;5021363;28;20076;-45
2023/04/10 00:45:03;;;;;;;13.80;8.45;;;10.80;47.70;;;;;;5020778;28;20050;-42
2023/04/10 00:47:31;;;;;;;14.05;9.07;;;10.80;47.80;;;;;;5019182;28;20049;-43
2023/04/10 00:49:59;;;;;;;11.52;8.60;;;10.80;47.80;;;;;;5019075;28;20053;-45
2023/04/10 00:52:28;;;;;;;14.10;9.18;;;10.80;47.90;;;;;;5020719;28;20061;-44
2023/04/10 00:54:55;;;;;;;15.65;9.70;;;10.80;48.00;;;;;;5021454;28;20080;-47
2023/04/10 00:57:22;;;;;;;14.43;8.93;;;10.80;48.00;;;;;;5020152;28;20050;-46
2023/04/10 00:59:51;;;;;;;13.50;8.68;;;10.80;47.90;;;;;;5021070;28;20057;-44
2023/04/10 01:02:19;;;;;;;12.63;8.70;;;10.80;48.50;;;;;;5025965;23;20506;-87
2023/04/10 01:04:46;;;;;;;13.90;8.55;;;10.80;48.00;;;;;;5017277;28;20065;-86
2023/04/10 01:07:25;;;;;;;13.45;8.85;;;10.80;48.00;;;;;;5017286;28;20570;-88
2023/04/10 01:10:02;;;;;;;16.33;10.00;;;10.80;48.00;;;;;;5020809;28;20057;-88
2023/04/10 01:12:43;;;;;;;15.00;10.05;;;10.80;48.00;;;;;;5020029;28;20049;-87
2023/04/10 01:15:15;;;;;;;14.52;9.60;;;10.80;48.00;;;;;;5019975;28;20492;-88
2023/04/10 01:17:50;;;;;;;14.80;9.63;;;10.80;47.90;;;;;;5017844;28;20076;-87
2023/04/10 01:20:25;;;;;;;14.82;9.48;;;10.80;47.90;;;;;;5023764;28;20045;-87
2023/04/10 01:23:12;;;;;;;15.55;9.82;;;10.80;47.90;;;;;;5016419;28;20576;-87
2023/04/10 01:29:07;;;;;;;16.15;9.52;;;10.80;48.00;;;;;;5025163;28;20048;-87
2023/04/10 01:31:39;;;;;;;14.52;9.43;;;10.80;47.90;;;;;;5019804;28;20072;-87
2023/04/10 01:34:10;;;;;;;15.63;9.35;;;10.80;47.90;;;;;;5017468;28;20389;-88
2023/04/10 01:36:51;;;;;;;16.65;10.05;;;10.80;48.00;;;;;;5015920;28;20060;-88
2023/04/10 01:39:21;;;;;;;14.52;8.43;;;10.70;48.00;;;;;;5017776;28;20052;-87
2023/04/10 01:41:52;;;;;;;14.25;9.32;;;10.70;48.00;;;;;;5019752;28;20045;-87
2023/04/10 01:44:25;;;;;;;12.43;8.55;;;10.70;48.10;;;;;;5019103;28;20422;-89
2023/04/10 01:46:55;;;;;;;12.43;8.30;;;10.70;48.10;;;;;;5018395;28;20519;-88
2023/04/10 01:49:24;;;;;;;11.95;8.45;;;10.70;48.10;;;;;;5017903;28;20479;-89
2023/04/10 01:51:57;;;;;;;12.30;8.40;;;10.70;48.60;;;;;;5017852;28;20064;-87
2023/04/10 01:54:27;;;;;;;12.50;8.50;;;10.70;48.20;;;;;;5018912;28;20060;-87
2023/04/10 01:56:56;;;;;;;14.10;8.75;;;10.70;48.10;;;;;;5017799;28;20045;-88
2023/04/10 01:59:30;;;;;;;14.77;9.95;;;10.70;48.10;;;;;;5017991;28;20473;-87
2023/04/10 02:01:58;;;;;;;16.95;9.95;;;10.70;48.20;;;;;;5017721;28;20060;-87
2023/04/10 02:04:26;;;;;;;17.17;10.00;;;10.70;48.20;;;;;;5015893;28;20053;-87
2023/04/10 02:07:03;;;;;;;14.10;9.45;;;10.70;48.10;;;;;;5013024;28;20485;-88
2023/04/10 02:09:40;;;;;;;13.90;9.85;;;10.70;48.10;;;;;;5019253;28;20052;-92
2023/04/10 02:12:14;;;;;;;14.93;10.10;;;10.70;48.20;;;;;;5020178;28;20053;-89
2023/04/10 02:14:46;;;;;;;17.02;10.27;;;10.70;48.20;;;;;;5015567;28;20061;-91
2023/04/10 02:17:17;;;;;;;12.70;9.02;;;10.70;48.20;;;;;;5019242;28;20057;-90
2023/04/10 02:19:47;;;;;;;17.30;10.23;;;10.60;48.10;;;;;;5017611;28;20053;-90
2023/04/10 02:22:15;;;;;;;15.13;9.95;;;10.60;48.20;;;;;;5017977;28;20049;-90
2023/04/10 02:24:43;;;;;;;13.63;9.32;;;10.60;48.20;;;;;;5017129;28;20061;-90
2023/04/10 02:27:10;;;;;;;15.85;10.25;;;10.60;48.30;;;;;;5019623;28;20064;-89
2023/04/10 02:29:38;;;;;;;13.00;8.52;;;10.60;48.30;;;;;;5019546;28;21510;-90
2023/04/10 02:32:07;;;;;;;14.43;9.82;;;10.60;48.30;;;;;;4969755;28;20057;-91
2023/04/10 02:34:35;;;;;;;15.05;9.95;;;10.60;48.30;;;;;;4998878;28;20061;-90
2023/04/10 02:37:02;;;;;;;14.70;9.13;;;10.50;48.30;;;;;;4998672;28;20410;-90
2023/04/10 02:39:30;;;;;;;16.05;9.93;;;10.50;48.30;;;;;;4999364;28;20068;-89
2023/04/10 02:41:58;;;;;;;15.30;9.65;;;10.50;48.30;;;;;;4999002;28;20056;-90
2023/04/10 02:44:26;;;;;;;13.40;8.93;;;10.50;48.30;;;;;;4995486;28;20524;-91
2023/04/10 02:46:54;;;;;;;14.07;9.02;;;10.50;48.40;;;;;;4988138;28;20606;-89
2023/04/10 02:49:22;;;;;;;15.13;9.48;;;10.50;48.40;;;;;;4998497;28;20049;-90
2023/04/10 02:52:05;;;;;;;12.68;8.70;;;10.50;48.40;;;;;;5005483;28;20409;-92
2023/04/10 02:54:33;;;;;;;13.10;8.50;;;10.50;48.40;;;;;;4999013;28;20057;-92
2023/04/10 02:57:01;;;;;;;12.55;8.50;;;10.50;48.40;;;;;;5001911;28;20049;-91
2023/04/10 02:59:28;;;;;;;14.60;9.38;;;10.50;48.40;;;;;;4991841;28;20053;-89
2023/04/10 03:01:56;;;;;;;12.40;8.55;;;10.40;48.40;;;;;;4993262;28;20050;-89
2023/04/10 03:04:32;;;;;;;13.50;8.85;;;10.50;48.40;;;;;;4987036;28;20060;-88
2023/04/10 03:07:05;;;;;;;13.30;8.82;;;10.40;48.40;;;;;;4994833;28;20058;-88
2023/04/10 03:09:33;;;;;;;11.80;7.95;;;10.40;48.40;;;;;;4993807;28;20058;-90
2023/04/10 03:12:01;;;;;;;15.18;9.05;;;10.40;48.40;;;;;;4996378;28;20054;-89
2023/04/10 03:14:29;;;;;;;12.93;8.98;;;10.40;48.50;;;;;;4988395;28;20064;-88
2023/04/10 03:16:57;;;;;;;16.40;9.30;;;10.40;48.50;;;;;;4994486;28;20078;-88
2023/04/10 03:19:25;;;;;;;14.65;9.23;;;10.40;48.60;;;;;;4991275;28;20417;-89
2023/04/10 03:21:54;;;;;;;14.20;9.18;;;10.40;48.50;;;;;;4990871;28;20053;-88
2023/04/10 03:24:21;;;;;;;12.93;8.32;;;10.40;48.50;;;;;;4992201;28;20057;-87
2023/04/10 03:26:52;;;;;;;12.73;8.85;;;10.40;48.60;;;;;;4989077;28;20058;-89
2023/04/10 03:29:22;;;;;;;13.05;8.55;;;10.40;48.60;;;;;;4993346;28;20065;-88
2023/04/10 03:31:49;;;;;;;13.38;8.45;;;10.40;48.60;;;;;;4992144;28;20046;-87
2023/04/10 03:34:17;;;;;;;12.38;8.20;;;10.30;48.60;;;;;;4986557;28;20417;-89
2023/04/10 03:36:45;;;;;;;12.55;7.78;;;10.30;48.60;;;;;;4995210;28;20062;-88
2023/04/10 03:39:16;;;;;;;11.95;7.93;;;10.40;49.10;;;;;;4996108;28;20058;-88
2023/04/10 03:41:52;;;;;;;13.55;8.77;;;10.30;48.60;;;;;;4989721;28;20046;-88
2023/04/10 03:44:23;;;;;;;12.18;7.55;;;10.30;48.60;;;;;;4990976;28;20054;-88
2023/04/10 03:46:50;;;;;;;11.40;7.97;;;10.30;48.70;;;;;;4994432;28;20069;-89
2023/04/10 03:49:18;;;;;;;14.95;8.32;;;10.30;48.60;;;;;;4994535;28;20076;-88
2023/04/10 03:51:46;;;;;;;13.45;8.70;;;10.30;48.70;;;;;;4987403;28;20046;-88
2023/04/10 03:54:17;;;;;;;12.18;8.32;;;10.30;48.70;;;;;;4990390;28;20615;-88
2023/04/10 03:56:44;;;;;;;13.75;8.05;;;10.30;48.70;;;;;;4988504;28;20521;-87
2023/04/10 03:59:12;;;;;;;11.75;7.93;;;10.30;48.60;;;;;;4988429;28;20428;-88
2023/04/10 04:01:40;;;;;;;12.02;7.90;;;10.30;48.60;;;;;;4991392;28;20064;-89
2023/04/10 04:04:07;;;;;;;15.52;9.00;;;10.30;48.60;;;;;;4992003;28;20046;-88
2023/04/10 04:06:35;;;;;;;14.18;9.05;;;10.30;48.70;;;;;;4988404;28;20058;-89
2023/04/10 04:09:03;;;;;;;12.57;8.90;;;10.30;48.70;;;;;;4982657;28;20058;-88
2023/04/10 04:11:33;;;;;;;12.70;9.02;;;10.20;48.70;;;;;;4993198;28;20430;-89
2023/04/10 04:14:07;;;;;;;14.38;9.73;;;10.20;48.70;;;;;;4993391;28;20050;-89
2023/04/10 04:16:34;;;;;;;14.38;8.40;;;10.20;48.70;;;;;;4992956;28;20647;-89
2023/04/10 04:19:02;;;;;;;12.52;8.52;;;10.20;48.70;;;;;;4970027;28;20787;-89
2023/04/10 04:21:32;;;;;;;14.55;8.40;;;10.20;48.80;;;;;;4987248;28;20062;-89
2023/04/10 04:23:59;;;;;;;14.32;8.15;;;10.20;48.80;;;;;;4991236;28;20353;-90
2023/04/10 04:26:27;;;;;;;12.60;8.23;;;10.20;48.80;;;;;;4993588;28;20061;-90
2023/04/10 04:28:55;;;;;;;14.23;8.90;;;10.20;48.90;;;;;;4992464;28;20050;-91
2023/04/10 04:31:31;;;;;;;13.30;8.40;;;10.10;48.80;;;;;;4993294;28;20050;-89
2023/04/10 04:33:58;;;;;;;16.38;9.70;;;10.10;48.80;;;;;;4992260;28;20061;-88
2023/04/10 04:36:26;;;;;;;12.80;8.25;;;10.10;48.80;;;;;;4993050;28;20076;-87
2023/04/10 04:39:07;;;;;;;14.10;8.73;;;10.10;48.90;;;;;;4992437;28;20049;-92
2023/04/10 04:41:34;;;;;;;12.75;8.00;;;10.10;48.90;;;;;;4992644;28;20050;-88
2023/04/10 04:44:03;;;;;;;46.78;22.67;;;10.10;48.90;;;;;;4997555;28;20414;-88
2023/04/10 04:46:36;;;;;;;25.45;14.75;;;10.10;49.00;;;;;;4993423;28;20060;-89
2023/04/10 04:49:06;;;;;;;18.20;11.02;;;10.10;49.00;;;;;;4991036;28;20413;-88
2023/04/10 04:51:34;;;;;;;14.15;9.32;;;10.10;49.00;;;;;;4995536;28;20058;-88
2023/04/10 04:54:02;;;;;;;13.10;8.63;;;10.10;49.00;;;;;;4996509;28;20065;-87
2023/04/10 04:56:29;;;;;;;13.60;8.63;;;10.10;49.00;;;;;;4996302;28;21391;-88
2023/04/10 04:58:57;;;;;;;10.88;7.63;;;10.10;49.00;;;;;;4993521;28;20143;-89
2023/04/10 05:01:42;;;;;;;18.10;10.45;;;10.00;49.00;;;;;;4986921;28;20057;-88
2023/04/10 05:04:09;;;;;;;27.95;14.18;;;10.00;49.10;;;;;;4988458;28;20454;-88
2023/04/10 05:06:39;;;;;;;18.60;10.13;;;10.00;49.10;;;;;;4992325;28;20066;-87
2023/04/10 05:09:07;;;;;;;15.43;9.85;;;10.00;49.10;;;;;;4992982;28;20076;-89
2023/04/10 05:11:35;;;;;;;14.25;9.55;;;10.00;49.10;;;;;;4995268;28;20398;-88
2023/04/10 05:14:02;;;;;;;13.40;8.02;;;10.00;49.10;;;;;;4995533;28;20061;-88
2023/04/10 05:16:30;;;;;;;13.23;7.90;;;10.00;49.10;;;;;;5001556;28;20057;-87
2023/04/10 05:18:58;;;;;;;13.88;8.57;;;10.00;49.10;;;;;;4989386;28;20061;-88
2023/04/10 05:21:26;;;;;;;14.65;9.25;;;10.00;49.20;;;;;;4992047;28;20068;-88
2023/04/10 05:23:53;;;;;;;13.48;8.93;;;10.00;49.20;;;;;;4995802;28;20046;-89
2023/04/10 05:26:23;;;;;;;12.90;8.52;;;10.00;49.30;;;;;;4991423;28;20054;-87
2023/04/10 05:28:50;;;;;;;24.77;12.80;;;10.00;49.30;;;;;;4992345;28;20053;-88
2023/04/10 05:31:18;;;;;;;89.72;34.90;;;10.00;49.30;;;;;;4990463;28;20055;-88
2023/04/10 05:33:45;;;;;;;31.67;15.68;;;10.00;49.30;;;;;;4987467;28;20541;-88
2023/04/10 05:36:16;;;;;;;18.85;10.68;;;10.10;49.40;;;;;;4992526;28;20434;-88
2023/04/10 05:38:44;;;;;;;17.00;9.65;;;10.10;49.50;;;;;;4997379;28;20489;-88
2023/04/10 05:41:14;;;;;;;12.88;8.40;;;10.10;49.50;;;;;;4997779;28;20077;-85
2023/04/10 05:43:41;;;;;;;13.75;8.93;;;10.10;49.50;;;;;;4996297;28;20050;-88
2023/04/10 05:46:11;;;;;;;14.50;9.35;;;10.10;49.50;;;;;;4994969;28;20054;-93
2023/04/10 05:48:40;;;;;;;13.63;8.57;;;10.10;49.60;;;;;;4981688;28;20058;-90
2023/04/10 05:51:08;;;;;;;14.43;8.80;;;10.10;49.60;;;;;;4991604;28;20061;-94
2023/04/10 05:53:41;;;;;;;14.40;9.10;;;10.20;49.60;;;;;;4990917;28;20058;-92
2023/04/10 05:56:24;;;;;;;11.48;8.10;;;10.20;49.60;;;;;;4992540;28;20418;-93
2023/04/10 05:58:54;;;;;;;14.80;9.07;;;10.20;49.60;;;;;;4976653;23;21720;-94
2023/04/10 06:04:08;;;;;;;12.55;8.52;;;10.30;49.70;;;;;;4972502;28;20057;-45
2023/04/10 06:06:35;;;;;;;12.65;8.60;;;10.40;49.60;;;;;;4978557;28;20058;-45
2023/04/10 06:09:04;;;;;;;11.93;8.18;;;10.40;49.70;;;;;;4978128;28;20058;-44
2023/04/10 06:11:31;;;;;;;14.63;9.25;;;10.40;49.60;;;;;;4979966;28;20073;-47
2023/04/10 06:13:58;;;;;;;13.02;9.18;;;10.50;49.60;;;;;;4978978;28;20054;-46
2023/04/10 06:16:26;;;;;;;12.60;8.15;;;10.60;49.60;;;;;;4976746;28;20426;-49
2023/04/10 06:18:54;;;;;;;15.23;9.30;;;10.60;49.60;;;;;;4974517;28;20084;-47
2023/04/10 06:21:23;;;;;;;13.55;9.00;;;10.60;49.50;;;;;;4979396;28;20061;-45
2023/04/10 06:23:50;;;;;;;13.77;8.88;;;10.70;49.50;;;;;;4977288;28;20046;-47
2023/04/10 06:26:19;;;;;;;14.05;8.95;;;10.70;49.50;;;;;;4976781;28;20410;-46
2023/04/10 06:28:46;;;;;;;12.60;8.68;;;10.80;49.50;;;;;;4977890;28;20406;-44
2023/04/10 06:31:14;;;;;;;51.55;22.08;;;10.90;49.50;;;;;;4974688;28;20046;-48
2023/04/10 06:33:41;;;;;;;20.65;11.48;;;10.90;49.20;;;;;;4977603;28;20059;-46
2023/04/10 06:36:09;;;;;;;14.45;9.23;;;10.90;49.50;;;;;;4976866;28;20421;-49
2023/04/10 06:38:37;;;;;;;13.40;8.80;;;11.00;49.60;;;;;;4978387;28;20055;-46
2023/04/10 06:41:05;;;;;;;12.82;8.00;;;11.00;49.40;;;;;;4979700;28;20054;-46
2023/04/10 06:43:34;;;;;;;14.40;8.73;;;11.10;49.40;;;;;;4979564;28;20486;-48
2023/04/10 06:46:03;;;;;;;17.05;8.88;;;11.10;49.50;;;;;;4979720;28;20065;-46
2023/04/10 06:48:36;;;;;;;12.02;8.73;;;11.10;49.40;;;;;;4976882;28;20061;-46
2023/04/10 06:51:03;;;;;;;14.73;9.23;;;11.20;49.40;;;;;;4976627;28;20502;-44
2023/04/10 06:53:31;;;;;;;14.48;8.55;;;11.20;49.50;;;;;;4978258;28;20042;-46
2023/04/10 06:55:58;;;;;;;12.93;8.93;;;11.30;49.50;;;;;;4976182;28;20325;-47
2023/04/10 06:58:25;;;;;;;12.73;9.07;;;11.30;49.50;;;;;;4977973;28;20054;-45
2023/04/10 07:00:54;;;;;;;14.10;8.13;;;11.40;49.50;;;;;;4976515;28;20486;-48
2023/04/10 07:03:25;;;;;;;12.90;8.55;;;11.50;49.40;;;;;;4975007;28;20494;-45
2023/04/10 07:05:53;;;;;;;13.75;8.93;;;11.50;49.30;;;;;;4985928;28;20505;-46
2023/04/10 07:08:20;;;;;;;12.98;8.70;;;11.60;49.30;;;;;;4977924;28;20055;-44
2023/04/10 07:10:47;;;;;;;11.30;8.15;;;11.70;49.10;;;;;;4982403;28;20045;-45
2023/04/10 07:13:14;;;;;;;14.23;8.80;;;11.70;49.00;;;;;;4982696;28;20639;-45
2023/04/10 07:15:42;;;;;;;13.48;8.13;;;11.80;49.00;;;;;;4982676;28;20510;-46
2023/04/10 07:18:10;;;;;;;15.00;8.45;;;11.90;48.90;;;;;;4977103;28;20074;-44
2023/04/10 07:20:38;;;;;;;13.20;8.43;;;12.00;48.90;;;;;;4975855;28;20066;-45
2023/04/10 07:23:08;;;;;;;12.65;8.48;;;12.00;48.80;;;;;;4977589;28;20066;-46
2023/04/10 07:25:35;;;;;;;12.23;8.23;;;12.10;48.40;;;;;;4976748;28;20058;-49
2023/04/10 07:28:03;;;;;;;11.65;8.32;;;12.20;48.20;;;;;;4971133;28;20062;-48
2023/04/10 07:30:30;;;;;;;15.35;8.48;;;12.30;47.90;;;;;;4980663;28;20081;-46
2023/04/10 07:32:57;;;;;;;28.20;14.23;;;12.30;47.80;;;;;;4979449;28;20399;-46
2023/04/10 07:35:26;;;;;;;27.08;12.02;;;12.40;47.80;;;;;;4982096;28;20410;-47
2023/04/10 07:37:53;;;;;;;24.88;13.77;;;12.50;47.40;;;;;;4987016;28;20057;-45
2023/04/10 07:40:20;;;;;;;23.40;12.88;;;12.60;47.30;;;;;;4993402;28;20437;-46
2023/04/10 07:42:48;;;;;;;14.13;7.45;;;12.60;47.20;;;;;;4986035;28;20058;-46
2023/04/10 07:45:15;;;;;;;14.15;9.32;;;12.70;47.00;;;;;;4981274;28;20057;-45
2023/04/10 07:47:43;;;;;;;12.75;7.32;;;12.80;46.80;;;;;;4987554;28;20065;-47
2023/04/10 07:50:10;;;;;;;12.15;8.10;;;12.90;46.70;;;;;;4991629;28;20126;-49
2023/04/10 07:52:39;;;;;;;12.85;7.80;;;12.90;46.60;;;;;;4985568;28;20062;-48
2023/04/10 07:55:06;;;;;;;9.95;6.90;;;13.00;46.50;;;;;;4981909;28;20621;-46
2023/04/10 07:57:34;;;;;;;11.45;7.10;;;13.00;46.60;;;;;;4985720;28;20057;-45
2023/04/10 08:00:01;;;;;;;13.10;7.32;;;13.10;46.30;;;;;;4979992;28;20058;-49
2023/04/10 08:02:28;;;;;;;10.05;7.40;;;13.20;46.10;;;;;;4984411;28;20058;-46
2023/04/10 08:04:55;;;;;;;11.68;7.55;;;13.30;45.80;;;;;;4985761;28;20351;-46
2023/04/10 08:07:23;;;;;;;16.48;7.20;;;13.40;45.40;;;;;;4983559;28;20050;-49
2023/04/10 08:09:51;;;;;;;11.18;6.70;;;13.40;45.40;;;;;;4980911;28;20054;-45
2023/04/10 08:12:18;;;;;;;11.52;6.57;;;13.50;44.90;;;;;;4984523;28;20066;-45
2023/04/10 08:14:46;;;;;;;9.30;6.18;;;13.60;44.90;;;;;;4983163;28;20077;-45
2023/04/10 08:17:14;;;;;;;10.40;6.05;;;13.60;44.80;;;;;;4983862;28;21024;-43
2023/04/10 08:19:41;;;;;;;9.57;6.30;;;13.70;44.60;;;;;;4983804;28;20081;-47
2023/04/10 08:22:12;;;;;;;8.60;6.07;;;13.70;44.30;;;;;;4984493;28;20059;-46
2023/04/10 08:24:39;;;;;;;9.23;5.93;;;13.80;44.30;;;;;;4984384;28;20478;-47
2023/04/10 08:27:07;;;;;;;10.57;6.60;;;13.80;44.50;;;;;;4983136;28;20046;-47
2023/04/10 08:29:36;;;;;;;11.52;7.00;;;13.90;44.10;;;;;;4983817;28;20069;-44
2023/04/10 08:32:04;;;;;;;9.57;6.55;;;14.00;43.70;;;;;;4987148;28;20161;-45
2023/04/10 08:34:31;;;;;;;8.13;5.82;;;14.00;43.70;;;;;;4989727;28;20054;-45
2023/04/10 08:37:00;;;;;;;9.52;6.30;;;14.10;43.90;;;;;;4998562;28;20057;-45
2023/04/10 08:39:27;;;;;;;9.70;6.20;;;14.10;43.50;;;;;;4993221;28;20160;-45
2023/04/10 08:41:55;;;;;;;8.10;5.88;;;14.20;43.30;;;;;;4995505;28;20486;-44
2023/04/10 08:44:23;;;;;;;9.80;5.95;;;14.20;43.50;;;;;;4981929;28;20049;-51
2023/04/10 08:46:51;;;;;;;8.65;6.28;;;14.30;43.30;;;;;;4986020;28;20050;-44
2023/04/10 08:49:28;;;;;;;9.00;5.97;;;14.30;43.00;;;;;;4978626;28;20054;-49
2023/04/10 08:51:57;;;;;;;9.75;6.18;;;14.40;42.90;;;;;;4995946;28;20058;-46
2023/04/10 08:54:28;;;;;;;11.80;6.18;;;14.50;43.70;;;;;;4992378;28;20057;-45
2023/04/10 08:56:57;;;;;;;10.95;6.50;;;14.60;43.00;;;;;;4990475;28;20058;-46
2023/04/10 08:59:31;;;;;;;9.02;5.85;;;14.60;42.90;;;;;;4988442;28;20054;-44
2023/04/10 09:01:59;;;;;;;9.18;5.93;;;14.70;42.50;;;;;;4980528;28;20386;-44
2023/04/10 09:04:27;;;;;;;9.02;6.22;;;14.80;42.10;;;;;;4978536;28;20050;-45
2023/04/10 09:06:54;;;;;;;10.63;6.15;;;14.90;42.10;;;;;;4982059;28;20054;-46
2023/04/10 09:09:21;;;;;;;9.77;6.45;;;14.90;41.90;;;;;;4982774;28;20058;-44
2023/04/10 09:12:03;;;;;;;8.38;6.07;;;15.00;41.80;;;;;;4983757;28;20510;-48
2023/04/10 09:14:33;;;;;;;12.50;6.22;;;15.00;41.60;;;;;;4979389;28;20050;-45
2023/04/10 09:17:18;;;;;;;9.07;5.65;;;15.10;42.00;;;;;;4981627;28;20060;-45
2023/04/10 09:19:49;;;;;;;9.13;5.68;;;15.20;41.40;;;;;;4990350;28;20050;-48
2023/04/10 09:22:17;;;;;;;8.52;5.80;;;15.20;41.70;;;;;;4986955;28;20066;-44
2023/04/10 09:24:48;;;;;;;9.75;5.55;;;15.30;41.70;;;;;;4987209;28;20066;-44
2023/04/10 09:27:30;;;;;;;9.35;5.43;;;15.30;41.30;;;;;;4987827;28;20053;-50
2023/04/10 09:30:01;;;;;;;7.93;5.07;;;15.40;40.90;;;;;;4991341;28;20519;-46
2023/04/10 09:32:40;;;;;;;7.15;5.18;;;15.40;41.20;;;;;;4988720;28;20064;-44
2023/04/10 09:35:08;;;;;;;8.27;5.07;;;15.50;40.80;;;;;;4988904;28;20057;-48
2023/04/10 09:37:36;;;;;;;7.30;5.25;;;15.50;40.80;;;;;;4998596;28;20340;-45
2023/04/10 09:40:06;;;;;;;6.60;4.95;;;15.60;40.90;;;;;;4991368;28;20064;-47
2023/04/10 09:42:35;;;;;;;9.40;4.97;;;15.60;40.60;;;;;;4989497;28;20456;-47
2023/04/10 09:45:05;;;;;;;7.18;4.70;;;15.60;40.40;;;;;;5000055;28;20409;-43
2023/04/10 09:47:33;;;;;;;6.30;4.82;;;15.70;40.60;;;;;;4992294;28;20072;-46
2023/04/10 09:50:02;;;;;;;8.35;5.35;;;15.70;40.50;;;;;;4984347;28;20526;-45
2023/04/10 09:52:31;;;;;;;6.85;4.15;;;15.80;40.60;;;;;;4980356;28;20443;-46
2023/04/10 09:55:00;;;;;;;7.47;4.93;;;15.80;40.70;;;;;;4990860;28;20054;-46
2023/04/10 09:57:32;;;;;;;6.65;4.45;;;15.90;40.70;;;;;;4986121;28;20475;-49
2023/04/10 10:00:02;;;;;;;7.07;4.78;;;16.00;40.90;;;;;;4983451;28;20477;-45
2023/04/10 10:02:35;;;;;;;7.28;4.88;;;16.10;40.90;;;;;;4987533;28;20054;-49
2023/04/10 10:05:05;;;;;;;6.32;4.65;;;16.10;40.60;;;;;;4986285;28;20513;-46
2023/04/10 10:07:32;;;;;;;6.32;4.57;;;16.20;40.50;;;;;;4985785;28;20547;-47
2023/04/10 10:10:02;;;;;;;5.53;3.95;;;16.20;39.90;;;;;;4982916;28;20058;-48
2023/04/10 10:12:38;;;;;;;4.90;3.47;;;16.30;39.90;;;;;;4996876;28;20069;-44
2023/04/10 10:15:11;;;;;;;5.38;3.70;;;16.30;39.80;;;;;;4983718;28;20069;-45
2023/04/10 10:17:46;;;;;;;4.80;3.70;;;16.40;39.70;;;;;;4993031;28;20065;-44
2023/04/10 10:20:16;;;;;;;6.15;4.07;;;16.40;38.90;;;;;;4990214;28;20484;-44
2023/04/10 10:22:46;;;;;;;4.78;3.33;;;16.50;39.20;;;;;;4988438;28;20153;-45
2023/04/10 10:25:14;;;;;;;5.03;3.95;;;16.50;39.20;;;;;;4992274;28;20051;-48
2023/04/10 10:27:43;;;;;;;4.82;3.85;;;16.60;38.90;;;;;;4988998;28;20498;-44
2023/04/10 10:30:13;;;;;;;4.78;3.70;;;16.70;38.30;;;;;;4993343;28;20054;-47
2023/04/10 10:32:43;;;;;;;6.38;3.58;;;16.70;38.20;;;;;;4997667;28;20394;-47
2023/04/10 10:35:10;;;;;;;5.05;3.22;;;16.80;38.30;;;;;;4992404;28;20142;-46
2023/04/10 10:37:41;;;;;;;4.93;3.45;;;16.80;38.40;;;;;;4990463;28;20053;-47
2023/04/10 10:40:16;;;;;;;4.90;3.75;;;16.90;38.40;;;;;;4995198;28;20069;-45
2023/04/10 10:42:51;;;;;;;4.78;3.42;;;17.00;37.70;;;;;;4987937;28;20058;-44
2023/04/10 10:45:23;;;;;;;4.38;3.30;;;17.00;37.20;;;;;;4991822;28;20073;-44
2023/04/10 10:47:54;;;;;;;4.00;3.08;;;17.10;37.50;;;;;;4994849;28;20054;-44
2023/04/10 10:50:22;;;;;;;4.68;3.30;;;17.10;37.10;;;;;;4991728;28;20069;-45
2023/04/10 10:52:51;;;;;;;6.28;3.33;;;17.20;37.00;;;;;;4994392;28;20054;-47
2023/04/10 10:55:31;;;;;;;5.63;3.58;;;17.20;36.60;;;;;;4999935;28;20595;-44
2023/04/10 10:58:01;;;;;;;4.47;3.38;;;17.20;36.40;;;;;;4991660;28;20050;-44
2023/04/10 11:01:07;;;;;;;4.45;3.42;;;17.20;36.70;;;;;;4995897;28;20439;-45
2023/04/10 11:03:36;;;;;;;4.90;2.65;;;17.30;36.60;;;;;;4995511;28;20062;-45
2023/04/10 11:06:06;;;;;;;4.35;3.17;;;17.30;36.60;;;;;;4988892;28;20053;-46
2023/04/10 11:08:41;;;;;;;4.47;3.50;;;17.40;36.30;;;;;;4997931;28;20053;-48
2023/04/10 11:11:10;;;;;;;6.28;3.60;;;17.40;36.30;;;;;;4992341;28;20056;-46
2023/04/10 11:13:39;;;;;;;4.32;3.30;;;17.40;36.50;;;;;;4997672;28;20061;-45
2023/04/10 11:16:09;;;;;;;3.28;2.67;;;17.50;36.10;;;;;;4989911;28;20129;-44
2023/04/10 11:19:07;;;;;;;4.47;2.95;;;17.50;36.10;;;;;;4989017;28;20054;-44
2023/04/10 11:21:36;;;;;;;8.20;2.83;;;17.50;36.10;;;;;;4985416;28;20062;-46
2023/04/10 11:24:04;;;;;;;4.53;3.28;;;17.60;36.40;;;;;;4992878;28;20058;-45
2023/04/10 11:26:40;;;;;;;4.40;3.10;;;17.60;35.80;;;;;;4989965;28;20474;-47
2023/04/10 11:29:34;;;;;;;4.68;3.03;;;17.60;35.30;;;;;;4990038;28;20058;-44
2023/04/10 11:32:03;;;;;;;3.28;2.53;;;17.70;35.40;;;;;;4993182;28;20065;-44
2023/04/10 11:34:32;;;;;;;4.38;3.20;;;17.70;35.60;;;;;;5000943;28;20049;-45
2023/04/10 11:37:01;;;;;;;3.72;2.72;;;17.80;35.50;;;;;;4989584;28;20054;-48
2023/04/10 11:39:30;;;;;;;3.80;2.90;;;17.80;35.40;;;;;;4986321;28;20060;-47
2023/04/10 11:41:58;;;;;;;4.50;2.63;;;17.80;35.50;;;;;;4983813;28;20517;-46
2023/04/10 11:44:30;;;;;;;3.33;2.42;;;17.90;35.10;;;;;;4992830;28;20115;-47
2023/04/10 11:46:58;;;;;;;3.47;2.70;;;17.90;34.80;;;;;;4991156;28;20046;-46
2023/04/10 11:49:27;;;;;;;3.15;2.55;;;18.00;34.90;;;;;;4995433;28;20525;-45
2023/04/10 11:51:56;;;;;;;6.95;2.50;;;18.00;34.30;;;;;;4989521;28;20054;-46
2023/04/10 11:54:24;;;;;;;4.13;3.03;;;18.10;34.50;;;;;;4986281;28;20422;-45
2023/04/10 11:56:58;;;;;;;4.05;2.97;;;18.10;34.80;;;;;;5000425;28;20053;-44
2023/04/10 11:59:26;;;;;;;3.88;2.53;;;18.20;34.60;;;;;;4991937;28;20057;-45
2023/04/10 12:01:54;;;;;;;11.15;2.90;;;18.20;35.10;;;;;;4983721;28;20058;-45
2023/04/10 12:04:23;;;;;;;6.90;3.70;;;18.30;34.80;;;;;;4990353;28;20058;-47
2023/04/10 12:06:52;;;;;;;3.85;2.90;;;18.30;34.60;;;;;;4987554;28;20049;-44
2023/04/10 12:09:21;;;;;;;3.72;2.97;;;18.30;34.70;;;;;;4989277;28;20049;-48
2023/04/10 12:11:51;;;;;;;3.53;2.85;;;18.30;34.90;;;;;;4984359;28;20062;-44
2023/04/10 12:14:19;;;;;;;4.03;3.20;;;18.40;34.80;;;;;;4998085;28;20084;-44
2023/04/10 12:16:47;;;;;;;4.50;3.53;;;18.40;34.60;;;;;;4995821;28;20056;-44
2023/04/10 12:19:15;;;;;;;5.63;3.30;;;18.40;35.00;;;;;;4985521;28;20049;-45
2023/04/10 12:21:43;;;;;;;5.05;3.50;;;18.40;34.60;;;;;;4988626;28;20057;-44
2023/04/10 12:24:11;;;;;;;6.63;3.40;;;18.50;34.60;;;;;;4993065;28;20084;-45
2023/04/10 12:26:48;;;;;;;4.82;3.50;;;18.50;34.40;;;;;;4998061;28;20053;-46
2023/04/10 12:29:15;;;;;;;5.10;3.33;;;18.50;34.40;;;;;;4999060;28;20076;-45
2023/04/10 12:31:42;;;;;;;4.25;3.00;;;18.60;35.00;;;;;;4986492;28;20065;-47
2023/04/10 12:34:10;;;;;;;6.75;3.03;;;18.60;35.10;;;;;;4990473;28;20054;-44
2023/04/10 12:36:38;;;;;;;7.03;3.30;;;18.60;35.00;;;;;;4986828;28;20139;-43
2023/04/10 12:39:21;;;;;;;4.20;3.20;;;18.70;35.00;;;;;;4985049;28;20444;-43
2023/04/10 12:41:49;;;;;;;4.00;3.03;;;18.70;35.00;;;;;;4996966;28;20502;-45
2023/04/10 12:44:18;;;;;;;6.13;3.30;;;18.70;35.10;;;;;;4986822;28;20058;-44
2023/04/10 12:46:45;;;;;;;5.32;3.67;;;18.80;35.30;;;;;;4993522;28;20050;-45
2023/04/10 12:49:14;;;;;;;4.55;3.08;;;18.80;35.10;;;;;;4986750;28;20061;-44
2023/04/10 12:51:46;;;;;;;4.68;3.58;;;18.90;35.10;;;;;;4989503;28;20473;-44
2023/04/10 12:54:27;;;;;;;5.05;3.83;;;18.90;35.50;;;;;;4983914;28;20427;-45
2023/04/10 12:56:56;;;;;;;9.02;3.60;;;18.90;35.00;;;;;;4987420;28;20054;-46
2023/04/10 12:59:23;;;;;;;4.32;3.30;;;18.90;34.70;;;;;;4994319;28;20421;-44